createdAt,value
2022-12-24T00:00:16.866Z,5.70
2022-12-24T00:01:16.824Z,7.00
2022-12-24T00:02:16.934Z,10.60
2022-12-24T00:03:16.903Z,10.00
2022-12-24T00:04:16.792Z,9.40
2022-12-24T00:05:16.783Z,10.40
2022-12-24T00:06:16.770Z,9.10
2022-12-24T00:07:16.765Z,8.90
2022-12-24T00:08:16.741Z,12.30
2022-12-24T00:09:16.743Z,8.10
2022-12-24T00:10:16.735Z,9.80
2022-12-24T00:11:16.723Z,10.00
2022-12-24T00:12:16.703Z,8.70
2022-12-24T00:13:16.710Z,11.10
2022-12-24T00:14:16.688Z,11.90
2022-12-24T00:15:16.683Z,10.10
2022-12-24T00:16:16.707Z,13.00
2022-12-24T00:17:16.758Z,13.60
2022-12-24T00:18:16.646Z,12.50
2022-12-24T00:19:16.638Z,12.70
2022-12-24T00:20:16.617Z,16.70
2022-12-24T00:21:16.605Z,13.40
2022-12-24T00:22:16.591Z,11.60
2022-12-24T00:23:16.590Z,8.10
2022-12-24T00:24:16.607Z,11.90
2022-12-24T00:25:16.561Z,11.30
2022-12-24T00:26:16.546Z,16.30
2022-12-24T00:27:16.547Z,11.30
2022-12-24T00:28:16.524Z,14.50
2022-12-24T00:29:16.512Z,7.80
2022-12-24T00:30:16.515Z,10.80
2022-12-24T00:31:16.690Z,9.00
2022-12-24T00:32:16.485Z,11.60
2022-12-24T00:33:22.369Z,15.10
2022-12-24T00:34:16.469Z,11.10
2022-12-24T00:35:16.474Z,12.50
2022-12-24T00:36:16.453Z,11.70
2022-12-24T00:37:16.422Z,11.00
2022-12-24T00:38:16.418Z,14.60
2022-12-24T00:39:16.402Z,12.20
2022-12-24T00:40:16.409Z,11.40
2022-12-24T00:41:16.379Z,15.80
2022-12-24T00:42:16.375Z,10.50
2022-12-24T00:43:16.359Z,9.50
2022-12-24T00:44:16.365Z,9.40
2022-12-24T00:45:16.345Z,10.90
2022-12-24T00:46:16.405Z,13.30
2022-12-24T00:47:16.316Z,11.80
2022-12-24T00:48:16.322Z,12.50
2022-12-24T00:49:16.290Z,9.50
2022-12-24T00:50:16.293Z,11.90
2022-12-24T00:51:16.314Z,10.10
2022-12-24T00:52:16.285Z,11.50
2022-12-24T00:53:16.248Z,10.30
2022-12-24T00:54:16.250Z,13.60
2022-12-24T00:55:16.251Z,17.70
2022-12-24T00:56:16.229Z,12.60
2022-12-24T00:57:16.204Z,12.60
2022-12-24T00:58:16.202Z,13.00
2022-12-24T00:59:16.181Z,18.40
2022-12-24T01:00:16.181Z,12.40
2022-12-24T01:01:16.315Z,17.00
2022-12-24T01:02:16.433Z,17.10
2022-12-24T01:03:16.231Z,12.30
2022-12-24T01:04:16.130Z,16.50
2022-12-24T01:05:16.127Z,14.10
2022-12-24T01:06:16.107Z,14.60
2022-12-24T01:07:16.102Z,16.90
2022-12-24T01:08:16.089Z,17.50
2022-12-24T01:09:16.077Z,14.60
2022-12-24T01:10:16.091Z,19.10
2022-12-24T01:11:16.051Z,18.10
2022-12-24T01:12:16.047Z,12.60
2022-12-24T01:13:16.030Z,14.80
2022-12-24T01:14:16.018Z,17.20
2022-12-24T01:15:16.012Z,10.40
2022-12-24T01:16:16.172Z,17.70
2022-12-24T01:17:15.979Z,16.00
2022-12-24T01:18:15.976Z,17.40
2022-12-24T01:19:15.967Z,16.10
2022-12-24T01:20:15.984Z,16.20
2022-12-24T01:21:15.961Z,16.50
2022-12-24T01:22:15.932Z,19.60
2022-12-24T01:23:15.914Z,19.00
2022-12-24T01:24:15.926Z,16.50
2022-12-24T01:25:15.902Z,20.60
2022-12-24T01:26:15.886Z,15.60
2022-12-24T01:27:15.884Z,19.40
2022-12-24T01:28:15.863Z,15.60
2022-12-24T01:29:15.872Z,18.50
2022-12-24T01:30:15.928Z,15.90
2022-12-24T01:31:15.955Z,14.50
2022-12-24T01:32:15.856Z,23.60
2022-12-24T01:33:15.884Z,19.70
2022-12-24T01:34:15.804Z,22.00
2022-12-24T01:35:15.835Z,15.10
2022-12-24T01:36:16.800Z,19.30
2022-12-24T01:37:15.791Z,20.70
2022-12-24T01:38:15.779Z,21.10
2022-12-24T01:39:15.771Z,19.20
2022-12-24T01:40:15.733Z,19.80
2022-12-24T01:41:15.787Z,19.20
2022-12-24T01:42:15.710Z,18.00
2022-12-24T01:43:15.702Z,20.10
2022-12-24T01:44:15.691Z,22.70
2022-12-24T01:45:15.678Z,25.20
2022-12-24T01:46:15.751Z,19.90
2022-12-24T01:47:15.657Z,15.70
2022-12-24T01:48:15.646Z,16.20
2022-12-24T01:49:15.629Z,20.80
2022-12-24T01:50:15.621Z,20.00
2022-12-24T01:51:15.619Z,16.80
2022-12-24T01:52:15.599Z,16.10
2022-12-24T01:53:15.602Z,17.70
2022-12-24T01:54:15.571Z,16.60
2022-12-24T01:55:15.566Z,24.60
2022-12-24T01:56:15.558Z,22.40
2022-12-24T01:57:15.546Z,19.00
2022-12-24T01:58:15.531Z,23.30
2022-12-24T01:59:15.521Z,17.60
2022-12-24T02:00:15.507Z,22.10
2022-12-24T02:01:15.612Z,21.30
2022-12-24T02:02:15.687Z,21.10
2022-12-24T02:03:15.527Z,18.00
2022-12-24T02:04:15.471Z,19.20
2022-12-24T02:05:15.467Z,19.50
2022-12-24T02:06:15.453Z,18.90
2022-12-24T02:07:15.439Z,18.40
2022-12-24T02:08:15.417Z,23.20
2022-12-24T02:09:15.432Z,19.00
2022-12-24T02:10:15.398Z,19.80
2022-12-24T02:11:15.411Z,22.90
2022-12-24T02:12:15.373Z,24.00
2022-12-24T02:13:15.369Z,24.20
2022-12-24T02:14:15.352Z,24.70
2022-12-24T02:15:15.345Z,17.00
2022-12-24T02:16:15.405Z,16.70
2022-12-24T02:17:15.323Z,25.00
2022-12-24T02:18:15.326Z,23.60
2022-12-24T02:19:15.300Z,19.60
2022-12-24T02:20:15.292Z,19.90
2022-12-24T02:21:15.285Z,21.20
2022-12-24T02:22:15.267Z,19.30
2022-12-24T02:23:15.266Z,19.90
2022-12-24T02:24:15.239Z,23.00
2022-12-24T02:25:15.233Z,24.40
2022-12-24T02:26:15.237Z,18.70
2022-12-24T02:27:15.209Z,20.20
2022-12-24T02:28:15.192Z,19.40
2022-12-24T02:29:15.189Z,23.40
2022-12-24T02:30:15.179Z,19.00
2022-12-24T02:31:15.207Z,22.50
2022-12-24T02:32:15.151Z,18.40
2022-12-24T02:33:15.147Z,20.90
2022-12-24T02:34:15.187Z,23.70
2022-12-24T02:35:15.119Z,21.30
2022-12-24T02:36:15.116Z,19.40
2022-12-24T02:37:15.121Z,25.70
2022-12-24T02:38:15.087Z,20.00
2022-12-24T02:39:15.082Z,21.60
2022-12-24T02:40:16.733Z,20.70
2022-12-24T02:41:15.069Z,20.00
2022-12-24T02:42:15.049Z,21.20
2022-12-24T02:43:15.042Z,20.60
2022-12-24T02:44:15.021Z,24.10
2022-12-24T02:45:15.016Z,21.70
2022-12-24T02:46:15.039Z,19.40
2022-12-24T02:47:14.998Z,19.60
2022-12-24T02:48:14.985Z,16.40
2022-12-24T02:49:14.976Z,23.00
2022-12-24T02:50:14.953Z,24.80
2022-12-24T02:51:14.946Z,23.20
2022-12-24T02:52:14.938Z,22.80
2022-12-24T02:53:14.924Z,23.40
2022-12-24T02:54:14.909Z,23.00
2022-12-24T02:55:14.903Z,19.50
2022-12-24T02:56:14.904Z,20.00
2022-12-24T02:57:14.888Z,21.90
2022-12-24T02:58:14.864Z,21.90
2022-12-24T02:59:14.868Z,19.90
2022-12-24T03:00:14.845Z,21.00
2022-12-24T03:01:14.997Z,20.00
2022-12-24T03:02:15.029Z,25.60
2022-12-24T03:03:14.825Z,22.90
2022-12-24T03:04:14.800Z,22.80
2022-12-24T03:05:14.800Z,18.50
2022-12-24T03:06:14.785Z,24.10
2022-12-24T03:07:14.779Z,23.80
2022-12-24T03:08:14.760Z,19.20
2022-12-24T03:09:14.754Z,22.00
2022-12-24T03:10:14.737Z,27.10
2022-12-24T03:11:14.730Z,21.90
2022-12-24T03:12:14.729Z,21.10
2022-12-24T03:13:14.700Z,19.60
2022-12-24T03:14:14.686Z,23.30
2022-12-24T03:15:14.682Z,21.20
2022-12-24T03:16:14.749Z,20.40
2022-12-24T03:17:14.698Z,25.60
2022-12-24T03:18:14.650Z,21.50
2022-12-24T03:19:14.640Z,29.90
2022-12-24T03:20:14.628Z,21.90
2022-12-24T03:21:14.619Z,27.60
2022-12-24T03:22:14.624Z,19.30
2022-12-24T03:23:14.599Z,22.20
2022-12-24T03:24:14.577Z,24.30
2022-12-24T03:25:14.575Z,23.20
2022-12-24T03:26:14.557Z,25.10
2022-12-24T03:27:14.576Z,23.70
2022-12-24T03:28:14.532Z,31.70
2022-12-24T03:29:14.527Z,26.40
2022-12-24T03:30:14.507Z,28.90
2022-12-24T03:31:14.618Z,20.90
2022-12-24T03:32:14.504Z,23.50
2022-12-24T03:33:14.476Z,19.30
2022-12-24T03:34:14.474Z,19.70
2022-12-24T03:35:14.467Z,23.80
2022-12-24T03:36:14.441Z,25.10
2022-12-24T03:37:14.439Z,28.50
2022-12-24T03:38:14.431Z,26.10
2022-12-24T03:39:14.421Z,22.70
2022-12-24T03:40:14.416Z,23.90
2022-12-24T03:41:14.387Z,29.10
2022-12-24T03:42:14.401Z,24.40
2022-12-24T03:43:14.379Z,26.60
2022-12-24T03:44:14.357Z,20.20
2022-12-24T03:45:14.378Z,22.30
2022-12-24T03:46:14.395Z,25.40
2022-12-24T03:47:14.330Z,27.70
2022-12-24T03:48:14.313Z,27.40
2022-12-24T03:49:14.301Z,20.20
2022-12-24T03:50:14.298Z,25.10
2022-12-24T03:51:14.277Z,21.80
2022-12-24T03:52:14.276Z,27.80
2022-12-24T03:53:14.264Z,26.10
2022-12-24T03:54:14.247Z,26.80
2022-12-24T03:55:14.232Z,22.90
2022-12-24T03:56:14.228Z,26.80
2022-12-24T03:57:14.247Z,22.40
2022-12-24T03:58:14.202Z,30.60
2022-12-24T03:59:14.187Z,23.80
2022-12-24T04:00:14.192Z,22.70
2022-12-24T04:01:14.357Z,23.90
2022-12-24T04:02:14.490Z,24.50
2022-12-24T04:03:14.352Z,24.30
2022-12-24T04:04:14.159Z,24.90
2022-12-24T04:05:14.151Z,21.40
2022-12-24T04:06:14.123Z,23.10
2022-12-24T04:07:14.157Z,28.40
2022-12-24T04:08:14.099Z,26.70
2022-12-24T04:09:14.078Z,26.00
2022-12-24T04:10:14.087Z,24.40
2022-12-24T04:11:14.058Z,22.80
2022-12-24T04:12:14.060Z,20.30
2022-12-24T04:13:14.033Z,23.90
2022-12-24T04:14:14.025Z,23.70
2022-12-24T04:15:14.014Z,26.20
2022-12-24T04:16:14.055Z,24.50
2022-12-24T04:17:14.017Z,25.70
2022-12-24T04:18:13.982Z,25.10
2022-12-24T04:19:13.973Z,21.20
2022-12-24T04:20:13.957Z,23.90
2022-12-24T04:21:13.943Z,25.00
2022-12-24T04:22:13.940Z,22.40
2022-12-24T04:23:13.931Z,22.50
2022-12-24T04:24:13.915Z,20.60
2022-12-24T04:25:13.895Z,21.40
2022-12-24T04:26:13.900Z,27.70
2022-12-24T04:27:13.879Z,24.20
2022-12-24T04:28:13.889Z,20.90
2022-12-24T04:29:13.856Z,23.60
2022-12-24T04:30:13.863Z,20.90
2022-12-24T04:31:13.865Z,24.60
2022-12-24T04:32:13.904Z,23.30
2022-12-24T04:33:13.824Z,22.80
2022-12-24T04:34:13.806Z,26.30
2022-12-24T04:35:13.789Z,24.90
2022-12-24T04:36:13.785Z,24.50
2022-12-24T04:37:13.767Z,21.90
2022-12-24T04:38:13.770Z,17.30
2022-12-24T04:39:13.765Z,22.60
2022-12-24T04:40:13.747Z,20.80
2022-12-24T04:41:19.171Z,23.40
2022-12-24T04:42:13.725Z,26.60
2022-12-24T04:43:13.727Z,24.80
2022-12-24T04:44:13.701Z,27.60
2022-12-24T04:45:13.686Z,25.80
2022-12-24T04:46:13.699Z,27.00
2022-12-24T04:47:13.658Z,24.20
2022-12-24T04:48:13.669Z,23.60
2022-12-24T04:49:13.633Z,21.80
2022-12-24T04:50:13.641Z,22.00
2022-12-24T04:51:13.617Z,19.30
2022-12-24T04:52:13.628Z,25.00
2022-12-24T04:53:13.619Z,21.40
2022-12-24T04:54:13.597Z,29.80
2022-12-24T04:55:13.572Z,24.30
2022-12-24T04:56:13.572Z,18.40
2022-12-24T04:57:13.555Z,26.60
2022-12-24T04:58:13.559Z,24.20
2022-12-24T04:59:13.522Z,28.30
2022-12-24T05:00:13.525Z,22.90
2022-12-24T05:01:13.665Z,24.10
2022-12-24T05:02:13.685Z,22.10
2022-12-24T05:03:13.535Z,23.60
2022-12-24T05:04:13.473Z,26.10
2022-12-24T05:05:13.465Z,20.90
2022-12-24T05:06:13.459Z,19.90
2022-12-24T05:07:13.440Z,21.10
2022-12-24T05:08:13.439Z,30.10
2022-12-24T05:09:13.429Z,22.30
2022-12-24T05:10:13.418Z,26.70
2022-12-24T05:11:13.400Z,24.10
2022-12-24T05:12:13.386Z,22.70
2022-12-24T05:13:13.384Z,19.90
2022-12-24T05:14:13.366Z,27.10
2022-12-24T05:15:13.360Z,26.90
2022-12-24T05:16:13.407Z,24.70
2022-12-24T05:17:13.412Z,26.10
2022-12-24T05:18:13.335Z,22.00
2022-12-24T05:19:13.311Z,19.90
2022-12-24T05:20:13.300Z,24.10
2022-12-24T05:21:13.287Z,26.60
2022-12-24T05:22:13.277Z,24.10
2022-12-24T05:23:13.313Z,24.10
2022-12-24T05:24:13.294Z,26.20
2022-12-24T05:25:13.246Z,23.20
2022-12-24T05:26:13.233Z,24.70
2022-12-24T05:27:13.218Z,25.30
2022-12-24T05:28:13.210Z,25.00
2022-12-24T05:29:13.305Z,23.90
2022-12-24T05:30:13.222Z,20.50
2022-12-24T05:31:13.226Z,24.40
2022-12-24T05:32:13.168Z,28.60
2022-12-24T05:33:13.152Z,22.30
2022-12-24T05:34:13.183Z,27.20
2022-12-24T05:35:13.131Z,23.30
2022-12-24T05:36:13.123Z,23.00
2022-12-24T05:37:13.110Z,21.10
2022-12-24T05:38:13.105Z,25.50
2022-12-24T05:39:15.612Z,26.40
2022-12-24T05:40:13.080Z,21.90
2022-12-24T05:41:13.064Z,29.50
2022-12-24T05:42:13.059Z,25.20
2022-12-24T05:43:13.048Z,24.80
2022-12-24T05:44:13.045Z,23.60
2022-12-24T05:45:13.022Z,27.60
2022-12-24T05:46:13.136Z,20.80
2022-12-24T05:47:13.004Z,27.50
2022-12-24T05:48:12.989Z,28.70
2022-12-24T05:49:12.988Z,23.10
2022-12-24T05:50:12.963Z,20.90
2022-12-24T05:51:12.969Z,29.40
2022-12-24T05:52:12.943Z,25.60
2022-12-24T05:53:12.944Z,32.90
2022-12-24T05:54:12.933Z,22.10
2022-12-24T05:55:12.931Z,30.10
2022-12-24T05:56:12.902Z,27.50
2022-12-24T05:57:12.917Z,28.00
2022-12-24T05:58:12.890Z,22.20
2022-12-24T05:59:18.960Z,28.70
2022-12-24T06:00:12.853Z,28.50
2022-12-24T06:01:12.944Z,28.70
2022-12-24T06:02:12.889Z,27.70
2022-12-24T06:03:12.825Z,30.20
2022-12-24T06:04:12.908Z,25.10
2022-12-24T06:05:12.858Z,22.50
2022-12-24T06:06:12.791Z,27.30
2022-12-24T06:07:12.782Z,31.80
2022-12-24T06:08:12.766Z,29.70
2022-12-24T06:09:12.769Z,29.60
2022-12-24T06:10:12.747Z,28.20
2022-12-24T06:11:12.738Z,27.20
2022-12-24T06:12:12.722Z,23.10
2022-12-24T06:13:12.716Z,29.90
2022-12-24T06:14:12.716Z,28.10
2022-12-24T06:15:14.453Z,24.50
2022-12-24T06:16:12.729Z,27.20
2022-12-24T06:17:12.679Z,28.40
2022-12-24T06:18:12.658Z,26.00
2022-12-24T06:19:12.670Z,31.10
2022-12-24T06:20:12.642Z,26.80
2022-12-24T06:21:12.635Z,29.00
2022-12-24T06:22:12.613Z,27.50
2022-12-24T06:23:12.612Z,27.80
2022-12-24T06:24:12.602Z,19.70
2022-12-24T06:25:12.586Z,34.30
2022-12-24T06:26:12.576Z,26.20
2022-12-24T06:27:12.563Z,31.70
2022-12-24T06:28:12.547Z,30.80
2022-12-24T06:29:12.553Z,24.50
2022-12-24T06:30:12.524Z,25.60
2022-12-24T06:31:12.549Z,31.50
2022-12-24T06:32:12.509Z,26.90
2022-12-24T06:33:12.495Z,29.40
2022-12-24T06:34:12.490Z,29.40
2022-12-24T06:35:12.481Z,25.40
2022-12-24T06:36:17.249Z,32.50
2022-12-24T06:37:12.458Z,25.40
2022-12-24T06:38:12.435Z,31.10
2022-12-24T06:39:12.450Z,28.80
2022-12-24T06:40:12.416Z,34.70
2022-12-24T06:41:12.412Z,31.40
2022-12-24T06:42:12.390Z,27.10
2022-12-24T06:43:12.397Z,33.50
2022-12-24T06:44:12.375Z,24.70
2022-12-24T06:45:12.379Z,28.60
2022-12-24T06:46:12.390Z,32.20
2022-12-24T06:47:12.343Z,30.00
2022-12-24T06:48:12.325Z,25.70
2022-12-24T06:49:12.329Z,34.00
2022-12-24T06:50:12.319Z,31.80
2022-12-24T06:51:12.296Z,29.60
2022-12-24T06:52:12.285Z,32.70
2022-12-24T06:53:12.307Z,30.80
2022-12-24T06:54:12.260Z,26.60
2022-12-24T06:55:12.269Z,28.80
2022-12-24T06:56:12.238Z,30.60
2022-12-24T06:57:12.229Z,29.20
2022-12-24T06:58:12.218Z,34.20
2022-12-24T06:59:12.209Z,30.10
2022-12-24T07:00:12.200Z,31.80
2022-12-24T07:01:12.383Z,23.50
2022-12-24T07:02:12.400Z,32.30
2022-12-24T07:03:12.175Z,28.20
2022-12-24T07:04:19.671Z,28.40
2022-12-24T07:05:12.173Z,27.50
2022-12-24T07:06:12.130Z,29.80
2022-12-24T07:07:12.130Z,33.20
2022-12-24T07:08:12.119Z,27.20
2022-12-24T07:09:12.108Z,35.10
2022-12-24T07:10:12.099Z,26.70
2022-12-24T07:11:12.077Z,23.90
2022-12-24T07:12:12.072Z,36.50
2022-12-24T07:13:12.055Z,29.10
2022-12-24T07:14:12.047Z,28.10
2022-12-24T07:15:12.041Z,31.40
2022-12-24T07:16:12.155Z,28.90
2022-12-24T07:17:12.180Z,26.50
2022-12-24T07:18:11.998Z,33.00
2022-12-24T07:19:11.992Z,33.10
2022-12-24T07:20:11.988Z,28.60
2022-12-24T07:21:11.977Z,27.30
2022-12-24T07:22:15.762Z,26.10
2022-12-24T07:23:11.945Z,28.80
2022-12-24T07:24:11.929Z,31.10
2022-12-24T07:25:11.939Z,32.30
2022-12-24T07:26:11.911Z,32.30
2022-12-24T07:27:11.908Z,31.70
2022-12-24T07:28:11.898Z,27.70
2022-12-24T07:29:11.877Z,28.20
2022-12-24T07:30:11.872Z,25.90
2022-12-24T07:31:11.923Z,28.70
2022-12-24T07:32:11.841Z,30.50
2022-12-24T07:33:11.839Z,24.80
2022-12-24T07:34:11.818Z,31.80
2022-12-24T07:35:11.826Z,29.00
2022-12-24T07:36:11.799Z,29.90
2022-12-24T07:37:11.798Z,30.80
2022-12-24T07:38:11.776Z,28.90
2022-12-24T07:39:11.771Z,30.40
2022-12-24T07:40:11.763Z,28.40
2022-12-24T07:41:11.747Z,32.40
2022-12-24T07:42:11.753Z,29.30
2022-12-24T07:43:11.725Z,28.20
2022-12-24T07:44:11.713Z,31.30
2022-12-24T07:45:11.715Z,24.80
2022-12-24T07:46:11.790Z,24.10
2022-12-24T07:47:11.853Z,29.90
2022-12-24T07:48:11.668Z,26.00
2022-12-24T07:49:11.678Z,34.30
2022-12-24T07:50:11.655Z,28.90
2022-12-24T07:51:11.639Z,29.10
2022-12-24T07:52:11.635Z,28.70
2022-12-24T07:53:11.619Z,35.80
2022-12-24T07:54:11.613Z,34.20
2022-12-24T07:55:11.612Z,34.90
2022-12-24T07:56:13.006Z,20.80
2022-12-24T07:57:11.571Z,25.20
2022-12-24T07:58:11.576Z,31.00
2022-12-24T07:59:11.548Z,24.50
2022-12-24T08:00:11.538Z,31.10
2022-12-24T08:01:11.655Z,24.40
2022-12-24T08:02:17.965Z,28.20
2022-12-24T08:03:11.627Z,25.40
2022-12-24T08:04:11.571Z,29.10
2022-12-24T08:05:11.484Z,27.40
2022-12-24T08:06:12.479Z,24.50
2022-12-24T08:07:11.465Z,23.60
2022-12-24T08:08:11.445Z,31.20
2022-12-24T08:09:11.441Z,31.60
2022-12-24T08:10:11.430Z,33.10
2022-12-24T08:11:11.428Z,28.10
2022-12-24T08:12:11.399Z,25.00
2022-12-24T08:13:11.396Z,22.90
2022-12-24T08:14:11.379Z,23.00
2022-12-24T08:15:11.372Z,24.40
2022-12-24T08:16:11.404Z,29.40
2022-12-24T08:17:11.359Z,22.90
2022-12-24T08:18:11.344Z,28.20
2022-12-24T08:19:11.329Z,24.70
2022-12-24T08:20:11.314Z,23.00
2022-12-24T08:21:11.315Z,24.70
2022-12-24T08:22:11.294Z,25.50
2022-12-24T08:23:11.284Z,23.00
2022-12-24T08:24:11.267Z,23.20
2022-12-24T08:25:11.274Z,24.70
2022-12-24T08:26:11.253Z,26.60
2022-12-24T08:27:11.240Z,26.60
2022-12-24T08:28:11.251Z,24.50
2022-12-24T08:29:11.215Z,23.70
2022-12-24T08:30:13.736Z,25.50
2022-12-24T08:31:11.291Z,20.60
2022-12-24T08:32:11.294Z,28.70
2022-12-24T08:33:11.181Z,23.20
2022-12-24T08:34:11.179Z,25.80
2022-12-24T08:35:11.148Z,21.50
2022-12-24T08:36:11.153Z,22.40
2022-12-24T08:37:11.125Z,22.30
2022-12-24T08:38:11.114Z,20.80
2022-12-24T08:39:11.111Z,16.90
2022-12-24T08:40:11.098Z,27.60
2022-12-24T08:41:11.106Z,21.30
2022-12-24T08:42:11.118Z,23.00
2022-12-24T08:43:11.066Z,28.00
2022-12-24T08:44:11.046Z,20.70
2022-12-24T08:45:11.038Z,19.80
2022-12-24T08:46:11.045Z,25.90
2022-12-24T08:47:11.015Z,23.80
2022-12-24T08:48:11.005Z,23.50
2022-12-24T08:49:10.995Z,22.70
2022-12-24T08:50:10.985Z,22.00
2022-12-24T08:51:10.994Z,26.20
2022-12-24T08:52:10.955Z,23.30
2022-12-24T08:53:10.947Z,27.50
2022-12-24T08:54:10.980Z,24.80
2022-12-24T08:55:10.944Z,24.80
2022-12-24T08:56:10.920Z,21.60
2022-12-24T08:57:10.911Z,25.90
2022-12-24T08:58:10.891Z,24.50
2022-12-24T08:59:10.887Z,23.90
2022-12-24T09:00:10.882Z,19.80
2022-12-24T09:01:10.963Z,24.60
2022-12-24T09:02:11.147Z,19.30
2022-12-24T09:03:10.923Z,27.00
2022-12-24T09:04:10.829Z,19.00
2022-12-24T09:05:10.811Z,25.90
2022-12-24T09:06:10.828Z,18.90
2022-12-24T09:07:10.793Z,23.70
2022-12-24T09:08:10.782Z,22.90
2022-12-24T09:09:10.768Z,19.10
2022-12-24T09:10:10.761Z,24.80
2022-12-24T09:11:10.754Z,28.40
2022-12-24T09:12:10.740Z,28.30
2022-12-24T09:13:10.725Z,21.20
2022-12-24T09:14:10.723Z,22.30
2022-12-24T09:15:10.697Z,21.40
2022-12-24T09:16:10.819Z,24.10
2022-12-24T09:17:10.686Z,21.40
2022-12-24T09:18:10.692Z,21.80
2022-12-24T09:19:10.716Z,23.00
2022-12-24T09:20:10.650Z,19.50
2022-12-24T09:21:10.633Z,24.20
2022-12-24T09:22:10.643Z,23.10
2022-12-24T09:23:10.615Z,20.40
2022-12-24T09:24:10.606Z,20.00
2022-12-24T09:25:10.705Z,20.20
2022-12-24T09:26:10.605Z,18.90
2022-12-24T09:27:10.576Z,23.90
2022-12-24T09:28:10.562Z,22.60
2022-12-24T09:29:10.549Z,19.20
2022-12-24T09:30:10.546Z,20.00
2022-12-24T09:31:10.522Z,19.40
2022-12-24T09:32:10.564Z,21.30
2022-12-24T09:33:10.503Z,19.30
2022-12-24T09:34:10.494Z,23.40
2022-12-24T09:35:10.481Z,21.90
2022-12-24T09:36:10.474Z,21.60
2022-12-24T09:37:10.473Z,21.60
2022-12-24T09:38:10.450Z,23.30
2022-12-24T09:39:10.485Z,25.70
2022-12-24T09:40:10.434Z,25.70
2022-12-24T09:41:10.421Z,19.20
2022-12-24T09:42:10.415Z,19.70
2022-12-24T09:43:10.395Z,18.40
2022-12-24T09:44:10.387Z,20.00
2022-12-24T09:45:10.372Z,15.50
2022-12-24T09:46:10.493Z,22.40
2022-12-24T09:47:10.459Z,18.80
2022-12-24T09:48:10.344Z,24.80
2022-12-24T09:49:10.343Z,16.90
2022-12-24T09:50:10.329Z,18.50
2022-12-24T09:51:10.303Z,18.20
2022-12-24T09:52:10.315Z,22.40
2022-12-24T09:53:10.283Z,22.20
2022-12-24T09:54:10.298Z,23.10
2022-12-24T09:55:10.260Z,21.30
2022-12-24T09:56:10.279Z,17.10
2022-12-24T09:57:10.255Z,19.40
2022-12-24T09:58:10.239Z,18.20
2022-12-24T09:59:10.297Z,18.00
2022-12-24T10:00:10.211Z,22.20
2022-12-24T10:01:10.351Z,17.60
2022-12-24T10:02:10.317Z,19.30
2022-12-24T10:03:10.311Z,19.00
2022-12-24T10:04:10.159Z,19.70
2022-12-24T10:05:10.162Z,19.30
2022-12-24T10:06:10.146Z,20.10
2022-12-24T10:07:10.143Z,22.20
2022-12-24T10:08:10.138Z,18.90
2022-12-24T10:09:10.126Z,14.90
2022-12-24T10:10:10.102Z,17.50
2022-12-24T10:11:10.093Z,19.90
2022-12-24T10:12:10.098Z,20.40
2022-12-24T10:13:10.066Z,19.00
2022-12-24T10:14:10.067Z,22.30
2022-12-24T10:15:10.044Z,20.60
2022-12-24T10:16:10.033Z,19.50
2022-12-24T10:17:10.086Z,18.60
2022-12-24T10:18:10.020Z,24.10
2022-12-24T10:19:10.007Z,20.80
2022-12-24T10:20:10.024Z,27.40
2022-12-24T10:21:09.997Z,23.50
2022-12-24T10:22:09.976Z,19.20
2022-12-24T10:23:09.968Z,23.20
2022-12-24T10:24:09.939Z,19.00
2022-12-24T10:25:09.936Z,15.30
2022-12-24T10:26:09.920Z,20.10
2022-12-24T10:27:09.920Z,19.30
2022-12-24T10:28:09.900Z,19.20
2022-12-24T10:29:09.913Z,18.70
2022-12-24T10:30:15.020Z,29.40
2022-12-24T10:31:09.945Z,19.50
2022-12-24T10:32:09.886Z,21.40
2022-12-24T10:33:09.847Z,22.80
2022-12-24T10:34:09.859Z,22.30
2022-12-24T10:35:09.825Z,26.00
2022-12-24T10:36:12.353Z,37.80
2022-12-24T10:37:09.806Z,17.80
2022-12-24T10:38:09.794Z,19.30
2022-12-24T10:39:09.853Z,23.40
2022-12-24T10:40:09.764Z,22.30
2022-12-24T10:41:09.759Z,26.00
2022-12-24T10:42:09.740Z,22.00
2022-12-24T10:43:09.743Z,22.50
2022-12-24T10:44:09.722Z,18.50
2022-12-24T10:45:09.714Z,29.10
2022-12-24T10:46:09.772Z,21.70
2022-12-24T10:47:09.698Z,19.30
2022-12-24T10:48:09.710Z,16.20
2022-12-24T10:49:09.673Z,15.30
2022-12-24T10:50:09.659Z,21.20
2022-12-24T10:51:09.647Z,17.80
2022-12-24T10:52:09.632Z,26.30
2022-12-24T10:53:09.634Z,18.60
2022-12-24T10:54:09.620Z,24.20
2022-12-24T10:55:09.612Z,15.60
2022-12-24T10:56:09.590Z,19.40
2022-12-24T10:57:09.585Z,21.30
2022-12-24T10:58:09.577Z,20.80
2022-12-24T10:59:09.556Z,22.90
2022-12-24T11:00:09.544Z,26.20
2022-12-24T11:01:09.727Z,25.10
2022-12-24T11:02:09.684Z,29.30
2022-12-24T11:03:09.698Z,25.70
2022-12-24T11:04:09.506Z,25.60
2022-12-24T11:05:09.497Z,27.20
2022-12-24T11:06:09.483Z,24.10
2022-12-24T11:07:09.471Z,26.90
2022-12-24T11:08:09.463Z,32.30
2022-12-24T11:09:09.449Z,24.90
2022-12-24T11:10:09.432Z,25.30
2022-12-24T11:11:09.440Z,17.10
2022-12-24T11:12:09.865Z,16.80
2022-12-24T11:13:36.922Z,19.90
2022-12-24T11:14:09.394Z,25.40
2022-12-24T11:15:09.385Z,25.50
2022-12-24T11:16:09.517Z,23.20
2022-12-24T11:17:09.359Z,21.30
2022-12-24T11:18:09.353Z,21.70
2022-12-24T11:19:09.336Z,32.00
2022-12-24T11:20:09.341Z,24.90
2022-12-24T11:21:09.360Z,28.40
2022-12-24T11:22:09.325Z,28.50
2022-12-24T11:23:09.299Z,27.00
2022-12-24T11:24:09.296Z,22.80
2022-12-24T11:25:09.272Z,26.50
2022-12-24T11:26:09.261Z,21.90
2022-12-24T11:27:09.248Z,20.90
2022-12-24T11:28:09.245Z,25.20
2022-12-24T11:29:09.225Z,24.30
2022-12-24T11:30:11.902Z,19.90
2022-12-24T11:31:09.228Z,18.70
2022-12-24T11:32:09.188Z,25.00
2022-12-24T11:33:09.198Z,27.60
2022-12-24T11:34:09.167Z,26.10
2022-12-24T11:35:09.161Z,26.90
2022-12-24T11:36:09.152Z,22.40
2022-12-24T11:37:14.185Z,32.50
2022-12-24T11:38:09.156Z,19.90
2022-12-24T11:39:09.113Z,24.60
2022-12-24T11:40:09.100Z,19.80
2022-12-24T11:41:09.092Z,19.80
2022-12-24T11:42:09.075Z,22.00
2022-12-24T11:43:14.695Z,23.40
2022-12-24T11:44:09.062Z,19.80
2022-12-24T11:45:09.050Z,23.50
2022-12-24T11:46:09.130Z,22.00
2022-12-24T11:47:09.024Z,23.30
2022-12-24T11:48:09.065Z,20.40
2022-12-24T11:49:09.032Z,22.70
2022-12-24T11:50:18.144Z,19.00
2022-12-24T11:51:08.987Z,24.90
2022-12-24T11:52:08.967Z,20.30
2022-12-24T11:53:08.967Z,28.20
2022-12-24T11:54:08.945Z,35.70
2022-12-24T11:55:15.401Z,35.10
2022-12-24T11:56:08.928Z,30.70
2022-12-24T11:57:08.922Z,26.10
2022-12-24T11:58:08.962Z,24.40
2022-12-24T11:59:08.903Z,28.00
2022-12-24T12:00:08.884Z,25.80
2022-12-24T12:01:15.199Z,25.10
2022-12-24T12:02:08.929Z,25.70
2022-12-24T12:03:08.931Z,27.80
2022-12-24T12:04:08.890Z,20.10
2022-12-24T12:05:08.832Z,25.70
2022-12-24T12:06:08.843Z,19.90
2022-12-24T12:07:14.472Z,20.20
2022-12-24T12:08:08.808Z,23.00
2022-12-24T12:09:08.789Z,21.10
2022-12-24T12:10:08.804Z,23.80
2022-12-24T12:11:08.763Z,21.60
2022-12-24T12:12:08.762Z,23.10
2022-12-24T12:13:14.978Z,21.00
2022-12-24T12:14:08.732Z,19.10
2022-12-24T12:15:08.712Z,21.60
2022-12-24T12:16:08.739Z,15.60
2022-12-24T12:17:08.691Z,18.30
2022-12-24T12:18:08.696Z,20.90
2022-12-24T12:19:14.804Z,22.30
2022-12-24T12:20:08.668Z,18.90
2022-12-24T12:21:08.649Z,32.70
2022-12-24T12:22:08.661Z,40.40
2022-12-24T12:23:08.634Z,21.20
2022-12-24T12:24:08.616Z,27.80
2022-12-24T12:25:08.658Z,29.10
2022-12-24T12:26:08.599Z,22.30
2022-12-24T12:27:08.578Z,21.20
2022-12-24T12:28:08.586Z,28.20
2022-12-24T12:29:08.571Z,27.90
2022-12-24T12:30:08.571Z,21.70
2022-12-24T12:31:15.537Z,21.60
2022-12-24T12:32:08.604Z,25.90
2022-12-24T12:33:08.610Z,26.90
2022-12-24T12:34:08.511Z,15.40
2022-12-24T12:35:08.497Z,26.60
2022-12-24T12:36:08.488Z,22.30
2022-12-24T12:37:14.445Z,23.80
2022-12-24T12:38:08.500Z,20.00
2022-12-24T12:39:08.464Z,23.60
2022-12-24T12:40:08.439Z,24.40
2022-12-24T12:41:08.423Z,27.60
2022-12-24T12:42:08.419Z,28.60
2022-12-24T12:43:13.905Z,28.10
2022-12-24T12:44:08.411Z,32.80
2022-12-24T12:45:08.380Z,29.00
2022-12-24T12:46:08.372Z,29.80
2022-12-24T12:47:08.469Z,25.20
2022-12-24T12:48:08.389Z,19.90
2022-12-24T12:49:08.348Z,22.70
2022-12-24T12:50:08.328Z,23.30
2022-12-24T12:51:08.315Z,20.40
2022-12-24T12:52:08.309Z,24.40
2022-12-24T12:53:08.297Z,25.00